sensor_id;sensor_type;location;lat;lon;timestamp;P1;P2;P0
31163;PMS5003;17796;49.296;-117.656;2024-03-29T00:09:43;9;9;
31163;PMS5003;17796;49.296;-117.656;2024-03-29T00:24:46;10;10;
31163;PMS5003;17796;49.296;-117.656;2024-03-29T00:39:50;12;9;
31163;PMS5003;17796;49.296;-117.656;2024-03-29T00:54:53;9;6;
31163;PMS5003;17796;49.296;-117.656;2024-03-29T01:09:57;7;7;
31163;PMS5003;17796;49.296;-117.656;2024-03-29T01:25:00;9;9;
31163;PMS5003;17796;49.296;-117.656;2024-03-29T01:40:05;8;7;
31163;PMS5003;17796;49.296;-117.656;2024-03-29T01:55:11;15;12;
31163;PMS5003;17796;49.296;-117.656;2024-03-29T02:10:15;18;12;
31163;PMS5003;17796;49.296;-117.656;2024-03-29T02:25:19;15;12;
31163;PMS5003;17796;49.296;-117.656;2024-03-29T02:40:22;12;11;
31163;PMS5003;17796;49.296;-117.656;2024-03-29T02:55:26;14;10;
31163;PMS5003;17796;49.296;-117.656;2024-03-29T03:10:31;13;11;
31163;PMS5003;17796;49.296;-117.656;2024-03-29T03:25:35;13;11;
31163;PMS5003;17796;49.296;-117.656;2024-03-29T03:40:39;12;10;
31163;PMS5003;17796;49.296;-117.656;2024-03-29T03:55:42;17;12;
31163;PMS5003;17796;49.296;-117.656;2024-03-29T04:10:46;15;14;
31163;PMS5003;17796;49.296;-117.656;2024-03-29T04:25:52;15;11;
31163;PMS5003;17796;49.296;-117.656;2024-03-29T04:40:57;1;1;
31163;PMS5003;17796;49.296;-117.656;2024-03-29T04:56:02;1;1;
31163;PMS5003;17796;49.296;-117.656;2024-03-29T05:11:05;3;2;
31163;PMS5003;17796;49.296;-117.656;2024-03-29T05:26:10;1;0;
31163;PMS5003;17796;49.296;-117.656;2024-03-29T05:41:14;2;0;
31163;PMS5003;17796;49.296;-117.656;2024-03-29T05:56:17;1;1;
31163;PMS5003;17796;49.296;-117.656;2024-03-29T06:11:22;1;1;
31163;PMS5003;17796;49.296;-117.656;2024-03-29T06:26:26;3;2;
31163;PMS5003;17796;49.296;-117.656;2024-03-29T06:41:29;2;2;
31163;PMS5003;17796;49.296;-117.656;2024-03-29T06:56:33;0;0;
31163;PMS5003;17796;49.296;-117.656;2024-03-29T07:11:36;0;0;
31163;PMS5003;17796;49.296;-117.656;2024-03-29T07:26:40;0;0;
31163;PMS5003;17796;49.296;-117.656;2024-03-29T07:41:44;0;0;
31163;PMS5003;17796;49.296;-117.656;2024-03-29T07:56:48;1;1;
31163;PMS5003;17796;49.296;-117.656;2024-03-29T08:11:53;1;1;
31163;PMS5003;17796;49.296;-117.656;2024-03-29T08:26:57;1;1;
31163;PMS5003;17796;49.296;-117.656;2024-03-29T08:42:00;0;0;
31163;PMS5003;17796;49.296;-117.656;2024-03-29T08:57:04;0;0;
31163;PMS5003;17796;49.296;-117.656;2024-03-29T09:12:08;1;1;
31163;PMS5003;17796;49.296;-117.656;2024-03-29T09:27:12;6;4;
31163;PMS5003;17796;49.296;-117.656;2024-03-29T09:42:16;1;1;
31163;PMS5003;17796;49.296;-117.656;2024-03-29T09:57:20;0;0;
31163;PMS5003;17796;49.296;-117.656;2024-03-29T10:12:24;1;1;
31163;PMS5003;17796;49.296;-117.656;2024-03-29T10:27:27;0;0;
31163;PMS5003;17796;49.296;-117.656;2024-03-29T10:42:32;0;0;
31163;PMS5003;17796;49.296;-117.656;2024-03-29T10:57:41;0;0;
31163;PMS5003;17796;49.296;-117.656;2024-03-29T11:12:57;0;0;
31163;PMS5003;17796;49.296;-117.656;2024-03-29T11:28:05;0;0;
31163;PMS5003;17796;49.296;-117.656;2024-03-29T11:43:09;1;1;
31163;PMS5003;17796;49.296;-117.656;2024-03-29T11:58:12;1;1;
31163;PMS5003;17796;49.296;-117.656;2024-03-29T12:13:17;2;1;
31163;PMS5003;17796;49.296;-117.656;2024-03-29T12:28:21;0;0;
31163;PMS5003;17796;49.296;-117.656;2024-03-29T12:43:25;1;1;
31163;PMS5003;17796;49.296;-117.656;2024-03-29T12:58:29;1;1;
31163;PMS5003;17796;49.296;-117.656;2024-03-29T13:13:33;0;0;
31163;PMS5003;17796;49.296;-117.656;2024-03-29T13:28:36;0;0;
31163;PMS5003;17796;49.296;-117.656;2024-03-29T13:43:40;0;0;
31163;PMS5003;17796;49.296;-117.656;2024-03-29T13:58:43;0;0;
31163;PMS5003;17796;49.296;-117.656;2024-03-29T14:13:47;0;0;
31163;PMS5003;17796;49.296;-117.656;2024-03-29T14:28:50;0;0;
31163;PMS5003;17796;49.296;-117.656;2024-03-29T14:43:53;2;2;
31163;PMS5003;17796;49.296;-117.656;2024-03-29T14:58:58;3;2;
31163;PMS5003;17796;49.296;-117.656;2024-03-29T15:14:02;0;0;
31163;PMS5003;17796;49.296;-117.656;2024-03-29T15:29:06;3;1;
31163;PMS5003;17796;49.296;-117.656;2024-03-29T15:44:10;2;1;
31163;PMS5003;17796;49.296;-117.656;2024-03-29T15:59:13;1;1;
31163;PMS5003;17796;49.296;-117.656;2024-03-29T16:14:17;3;2;
31163;PMS5003;17796;49.296;-117.656;2024-03-29T16:29:21;4;3;
31163;PMS5003;17796;49.296;-117.656;2024-03-29T16:44:25;3;3;
31163;PMS5003;17796;49.296;-117.656;2024-03-29T16:59:28;1;1;
31163;PMS5003;17796;49.296;-117.656;2024-03-29T17:14:32;1;1;
31163;PMS5003;17796;49.296;-117.656;2024-03-29T17:29:36;2;2;
31163;PMS5003;17796;49.296;-117.656;2024-03-29T17:44:40;5;3;
31163;PMS5003;17796;49.296;-117.656;2024-03-29T17:59:43;7;5;
31163;PMS5003;17796;49.296;-117.656;2024-03-29T18:14:47;4;4;
31163;PMS5003;17796;49.296;-117.656;2024-03-29T18:29:50;15;10;
31163;PMS5003;17796;49.296;-117.656;2024-03-29T18:44:54;15;13;
31163;PMS5003;17796;49.296;-117.656;2024-03-29T18:59:57;10;8;
31163;PMS5003;17796;49.296;-117.656;2024-03-29T19:15:01;11;8;
31163;PMS5003;17796;49.296;-117.656;2024-03-29T19:30:05;8;8;
31163;PMS5003;17796;49.296;-117.656;2024-03-29T19:45:10;5;5;
31163;PMS5003;17796;49.296;-117.656;2024-03-29T20:00:14;3;3;
31163;PMS5003;17796;49.296;-117.656;2024-03-29T20:15:18;5;3;
31163;PMS5003;17796;49.296;-117.656;2024-03-29T20:30:21;3;3;
31163;PMS5003;17796;49.296;-117.656;2024-03-29T20:45:25;5;3;
31163;PMS5003;17796;49.296;-117.656;2024-03-29T21:00:28;5;5;
31163;PMS5003;17796;49.296;-117.656;2024-03-29T21:15:32;4;4;
31163;PMS5003;17796;49.296;-117.656;2024-03-29T21:30:35;5;3;
31163;PMS5003;17796;49.296;-117.656;2024-03-29T21:45:39;4;4;
31163;PMS5003;17796;49.296;-117.656;2024-03-29T22:00:43;7;4;
31163;PMS5003;17796;49.296;-117.656;2024-03-29T22:15:46;5;3;
31163;PMS5003;17796;49.296;-117.656;2024-03-29T22:30:50;5;4;
31163;PMS5003;17796;49.296;-117.656;2024-03-29T22:45:54;7;5;
31163;PMS5003;17796;49.296;-117.656;2024-03-29T23:00:57;5;5;
31163;PMS5003;17796;49.296;-117.656;2024-03-29T23:16:01;9;4;
31163;PMS5003;17796;49.296;-117.656;2024-03-29T23:31:05;8;7;
31163;PMS5003;17796;49.296;-117.656;2024-03-29T23:46:09;7;7;
